createdAt,value
2019-05-09T00:01:54.259Z,79.27
2019-05-09T00:04:25.141Z,79.25
2019-05-09T00:06:55.995Z,79.58
2019-05-09T00:09:27.371Z,79.54
2019-05-09T00:11:58.323Z,79.95
2019-05-09T00:14:29.486Z,80.10
2019-05-09T00:17:00.427Z,80.18
2019-05-09T00:19:33.344Z,79.92
2019-05-09T00:22:04.080Z,80.02
2019-05-09T00:24:34.957Z,80.02
2019-05-09T00:27:06.016Z,80.07
2019-05-09T00:29:44.541Z,80.34
2019-05-09T00:32:23.901Z,80.37
2019-05-09T00:35:14.000Z,80.58
2019-05-09T00:37:57.815Z,80.99
2019-05-09T00:40:28.737Z,81.98
2019-05-09T00:42:59.823Z,82.55
2019-05-09T00:45:38.567Z,83.44
2019-05-09T00:48:10.634Z,83.57
2019-05-09T00:50:43.615Z,84.20
2019-05-09T00:53:13.914Z,84.69
2019-05-09T00:55:45.061Z,84.47
2019-05-09T00:58:16.025Z,84.98
2019-05-09T01:00:47.387Z,85.62
2019-05-09T01:03:18.343Z,85.73
2019-05-09T01:05:49.405Z,85.81
2019-05-09T01:08:20.362Z,85.48
2019-05-09T01:10:53.018Z,85.80
2019-05-09T01:13:24.120Z,86.07
2019-05-09T01:15:55.064Z,86.08
2019-05-09T01:18:26.139Z,86.51
2019-05-09T01:20:56.979Z,86.54
2019-05-09T01:23:28.041Z,86.63
2019-05-09T01:25:58.895Z,86.63
2019-05-09T01:28:29.872Z,86.93
2019-05-09T01:31:01.033Z,87.05
2019-05-09T01:33:36.388Z,87.21
2019-05-09T01:36:07.329Z,87.23
2019-05-09T01:38:38.291Z,87.48
2019-05-09T01:41:22.904Z,87.74
2019-05-09T01:43:44.134Z,87.29
2019-05-09T01:46:14.569Z,87.46
2019-05-09T01:48:45.497Z,87.32
2019-05-09T01:51:16.353Z,87.27
2019-05-09T01:53:48.746Z,87.24
2019-05-09T01:56:19.821Z,87.18
2019-05-09T01:58:50.762Z,87.39
2019-05-09T02:01:24.121Z,87.27
2019-05-09T02:03:54.316Z,87.27
2019-05-09T02:06:24.883Z,87.39
2019-05-09T02:08:55.945Z,87.26
2019-05-09T02:11:39.474Z,87.38
2019-05-09T02:13:59.190Z,87.20
2019-05-09T02:16:37.801Z,87.11
2019-05-09T02:19:13.713Z,87.15
2019-05-09T02:21:44.848Z,86.92
2019-05-09T02:24:15.811Z,86.93
2019-05-09T02:26:46.867Z,86.60
2019-05-09T02:29:17.809Z,86.83
2019-05-09T02:31:48.581Z,87.21
2019-05-09T02:34:19.626Z,87.09
2019-05-09T02:36:50.614Z,87.49
2019-05-09T02:39:21.645Z,87.95
2019-05-09T02:42:07.648Z,88.86
2019-05-09T02:44:25.010Z,89.34
2019-05-09T02:47:00.347Z,89.29
2019-05-09T02:49:31.308Z,89.85
2019-05-09T02:52:01.859Z,90.14
2019-05-09T02:54:32.736Z,90.60
2019-05-09T02:57:03.791Z,90.49
2019-05-09T02:59:38.639Z,90.49
2019-05-09T03:02:19.703Z,90.46
2019-05-09T03:04:50.881Z,90.23
2019-05-09T03:07:23.462Z,90.38
2019-05-09T03:09:54.433Z,90.38
2019-05-09T03:12:34.496Z,90.60
2019-05-09T03:14:58.702Z,90.38
2019-05-09T03:17:29.661Z,90.16
2019-05-09T03:20:00.627Z,90.24
2019-05-09T03:22:31.681Z,90.22
2019-05-09T03:25:02.315Z,90.23
2019-05-09T03:27:39.154Z,90.34
2019-05-09T03:30:14.668Z,90.41
2019-05-09T03:32:48.887Z,90.40
2019-05-09T03:35:18.437Z,90.26
2019-05-09T03:37:51.015Z,90.45
2019-05-09T03:40:21.975Z,90.17
2019-05-09T03:42:52.848Z,90.24
2019-05-09T03:45:23.906Z,90.37
2019-05-09T03:47:58.283Z,90.35
2019-05-09T03:50:28.891Z,90.41
2019-05-09T03:52:59.957Z,90.34
2019-05-09T03:55:32.430Z,90.15
2019-05-09T03:58:07.336Z,90.36
2019-05-09T04:00:37.595Z,90.12
2019-05-09T04:03:08.698Z,90.52
2019-05-09T04:05:39.656Z,90.25
2019-05-09T04:08:18.155Z,90.33
2019-05-09T04:10:50.610Z,90.70
2019-05-09T04:13:23.837Z,90.57
2019-05-09T04:15:54.941Z,90.78
2019-05-09T04:18:27.729Z,90.80
2019-05-09T04:20:58.497Z,90.80
2019-05-09T04:23:29.350Z,90.95
2019-05-09T04:26:04.915Z,91.31
2019-05-09T04:28:39.714Z,91.41
2019-05-09T04:31:09.182Z,91.17
2019-05-09T04:33:40.224Z,90.95
2019-05-09T04:36:11.203Z,90.78
2019-05-09T04:38:42.056Z,90.36
2019-05-09T04:41:16.414Z,90.09
2019-05-09T04:43:45.508Z,90.55
2019-05-09T04:46:20.739Z,90.45
2019-05-09T04:48:48.839Z,90.13
2019-05-09T04:51:19.814Z,90.02
2019-05-09T04:53:50.673Z,90.57
2019-05-09T04:56:27.869Z,90.32
2019-05-09T04:58:58.514Z,90.38
2019-05-09T05:01:40.115Z,89.68
2019-05-09T05:04:11.365Z,89.48
2019-05-09T05:06:42.348Z,89.68
2019-05-09T05:09:13.398Z,89.71
2019-05-09T05:11:46.571Z,89.68
2019-05-09T05:14:22.577Z,89.17
2019-05-09T05:16:55.590Z,89.68
2019-05-09T05:19:28.496Z,89.61
2019-05-09T05:22:01.367Z,89.49
2019-05-09T05:24:40.040Z,89.80
2019-05-09T05:27:10.972Z,89.60
2019-05-09T05:29:41.810Z,89.65
2019-05-09T05:32:14.423Z,89.78
2019-05-09T05:35:02.062Z,89.83
2019-05-09T05:37:32.907Z,89.82
2019-05-09T05:40:04.581Z,89.73
2019-05-09T05:42:38.554Z,89.79
2019-05-09T05:45:08.546Z,89.76
2019-05-09T05:47:58.842Z,89.71
2019-05-09T05:50:29.771Z,89.82
2019-05-09T05:53:00.748Z,90.11
2019-05-09T05:55:31.605Z,90.06
2019-05-09T05:58:02.752Z,90.26
2019-05-09T06:00:33.728Z,90.45
2019-05-09T06:03:04.995Z,90.23
2019-05-09T06:05:35.646Z,90.23
2019-05-09T06:08:08.398Z,90.06
2019-05-09T06:10:39.914Z,89.08
2019-05-09T06:13:11.278Z,89.07
2019-05-09T06:15:41.810Z,88.85
2019-05-09T06:18:12.891Z,88.80
2019-05-09T06:20:45.823Z,88.80
2019-05-09T06:23:17.607Z,88.91
2019-05-09T06:25:48.694Z,88.06
2019-05-09T06:28:19.674Z,87.59
2019-05-09T06:30:50.655Z,88.30
2019-05-09T06:33:21.792Z,88.50
2019-05-09T06:36:02.534Z,88.37
2019-05-09T06:38:34.857Z,88.21
2019-05-09T06:41:08.479Z,88.52
2019-05-09T06:43:44.641Z,87.74
2019-05-09T06:46:18.259Z,87.00
2019-05-09T06:48:49.035Z,86.84
2019-05-09T06:51:21.306Z,86.67
2019-05-09T06:53:52.080Z,86.32
2019-05-09T06:56:23.138Z,85.88
2019-05-09T06:58:54.096Z,85.29
2019-05-09T07:01:42.747Z,84.33
2019-05-09T07:04:18.400Z,84.27
2019-05-09T07:06:54.263Z,84.00
2019-05-09T07:09:29.535Z,83.68
2019-05-09T07:12:01.210Z,82.83
2019-05-09T07:14:41.317Z,82.70
2019-05-09T07:17:08.756Z,83.11
2019-05-09T07:19:43.537Z,82.96
2019-05-09T07:22:18.393Z,82.49
2019-05-09T07:25:10.818Z,82.00
2019-05-09T07:27:40.708Z,82.86
2019-05-09T07:30:31.815Z,83.57
2019-05-09T07:33:04.520Z,83.54
2019-05-09T07:35:38.013Z,83.38
2019-05-09T07:38:08.627Z,83.44
2019-05-09T07:40:39.620Z,83.15
2019-05-09T07:43:10.704Z,82.37
2019-05-09T07:45:43.173Z,82.33
2019-05-09T07:48:14.255Z,80.79
2019-05-09T07:50:45.222Z,81.50
2019-05-09T07:53:17.689Z,81.89
2019-05-09T07:55:48.457Z,82.67
2019-05-09T07:58:19.399Z,82.66
2019-05-09T08:00:50.273Z,82.37
2019-05-09T08:03:21.331Z,82.33
2019-05-09T08:05:52.288Z,82.02
2019-05-09T08:08:23.465Z,82.20
2019-05-09T08:10:54.322Z,82.75
2019-05-09T08:13:29.002Z,83.26
2019-05-09T08:15:59.706Z,83.52
2019-05-09T08:18:30.663Z,83.75
2019-05-09T08:21:01.524Z,83.85
2019-05-09T08:23:32.579Z,83.92
2019-05-09T08:26:04.621Z,84.31
2019-05-09T08:28:35.628Z,84.08
2019-05-09T08:31:08.319Z,83.61
2019-05-09T08:33:39.072Z,83.45
2019-05-09T08:36:09.950Z,84.46
2019-05-09T08:38:40.581Z,83.38
2019-05-09T08:54:45.082Z,80.82
2019-05-09T08:57:18.260Z,80.20
2019-05-09T08:59:50.747Z,79.94
2019-05-09T09:02:22.401Z,80.56
2019-05-09T09:04:53.274Z,80.28
2019-05-09T09:07:24.331Z,79.58
2019-05-09T09:09:57.645Z,80.00
2019-05-09T09:12:34.202Z,77.50
2019-05-09T09:15:01.117Z,78.43
2019-05-09T09:17:31.846Z,79.83
2019-05-09T09:20:02.906Z,79.20
2019-05-09T09:22:33.862Z,80.08
2019-05-09T09:25:07.725Z,80.51
2019-05-09T09:27:38.545Z,80.59
2019-05-09T09:30:20.362Z,80.11
2019-05-09T09:32:47.965Z,79.75
2019-05-09T09:35:18.882Z,80.01
2019-05-09T09:37:52.256Z,78.90
2019-05-09T09:40:22.536Z,78.42
2019-05-09T09:42:53.598Z,78.93
2019-05-09T09:45:24.560Z,79.04
2019-05-09T09:47:55.416Z,79.07
2019-05-09T10:04:32.289Z,79.21
2019-05-09T10:07:03.161Z,79.69
2019-05-09T10:09:34.207Z,78.93
2019-05-09T10:12:05.272Z,79.21
2019-05-09T10:14:41.446Z,77.91
2019-05-09T10:17:18.018Z,78.00
2019-05-09T10:19:51.735Z,79.69
2019-05-09T10:22:25.500Z,79.23
2019-05-09T10:24:58.563Z,79.31
2019-05-09T10:27:28.919Z,79.10
2019-05-09T10:29:59.979Z,80.09
2019-05-09T10:32:31.138Z,79.56
2019-05-09T10:35:02.015Z,79.33
2019-05-09T10:37:33.270Z,78.17
2019-05-09T10:40:05.139Z,79.24
2019-05-09T10:42:38.073Z,79.65
2019-05-09T10:45:27.503Z,79.82
2019-05-09T10:47:58.679Z,77.41
2019-05-09T10:50:34.100Z,77.55
2019-05-09T10:53:02.243Z,77.99
2019-05-09T10:55:33.391Z,78.54
2019-05-09T10:58:04.456Z,78.05
2019-05-09T11:00:39.215Z,78.00
2019-05-09T11:03:08.900Z,78.84
2019-05-09T11:05:39.786Z,79.16
2019-05-09T11:08:10.723Z,79.73
2019-05-09T11:10:41.990Z,79.91
2019-05-09T11:13:12.970Z,80.70
2019-05-09T11:15:44.257Z,80.44
2019-05-09T11:18:18.512Z,79.78
2019-05-09T11:20:49.728Z,81.12
2019-05-09T11:23:23.751Z,80.96
2019-05-09T11:25:57.957Z,81.09
2019-05-09T11:28:28.536Z,80.57
2019-05-09T11:30:59.594Z,80.39
2019-05-09T11:33:31.981Z,80.84
2019-05-09T11:36:03.043Z,80.82
2019-05-09T11:38:37.908Z,81.52
2019-05-09T11:41:08.323Z,81.32
2019-05-09T11:43:39.033Z,81.62
2019-05-09T11:46:10.578Z,82.55
2019-05-09T11:48:41.939Z,82.17
2019-05-09T11:51:12.558Z,82.30
2019-05-09T11:53:43.533Z,82.08
2019-05-09T11:56:14.614Z,81.90
2019-05-09T11:58:47.834Z,81.10
2019-05-09T12:01:19.080Z,82.70
2019-05-09T12:03:52.397Z,83.09
2019-05-09T12:06:23.016Z,83.61
2019-05-09T12:08:53.870Z,83.75
2019-05-09T12:11:25.238Z,84.22
2019-05-09T12:13:58.106Z,83.24
2019-05-09T12:16:28.705Z,84.17
2019-05-09T12:19:00.670Z,84.12
2019-05-09T12:21:31.646Z,83.58
2019-05-09T12:24:02.920Z,86.20
2019-05-09T12:26:33.859Z,86.60
2019-05-09T12:29:04.927Z,87.86
2019-05-09T12:31:38.400Z,86.12
2019-05-09T12:34:09.034Z,86.45
2019-05-09T12:36:40.243Z,87.65
2019-05-09T12:39:11.224Z,88.44
2019-05-09T12:41:42.465Z,87.10
2019-05-09T12:44:13.541Z,86.37
2019-05-09T12:46:44.501Z,84.97
2019-05-09T12:49:15.560Z,84.52
2019-05-09T12:51:46.521Z,84.33
2019-05-09T12:54:19.077Z,84.62
2019-05-09T12:56:53.953Z,85.06
2019-05-09T12:59:24.797Z,85.89
2019-05-09T13:01:58.067Z,85.28
2019-05-09T13:04:30.928Z,85.76
2019-05-09T13:07:02.073Z,86.12
2019-05-09T13:09:34.575Z,85.48
2019-05-09T13:12:05.746Z,85.59
2019-05-09T13:14:38.010Z,85.27
2019-05-09T13:17:10.303Z,85.68
2019-05-09T13:19:47.873Z,85.60
2019-05-09T13:22:18.680Z,84.57
2019-05-09T13:24:49.418Z,84.33
2019-05-09T13:27:20.495Z,84.93
2019-05-09T13:29:51.454Z,85.06
2019-05-09T13:32:22.602Z,85.81
2019-05-09T13:34:57.815Z,85.78
2019-05-09T13:37:30.507Z,86.22
2019-05-09T13:40:03.290Z,86.14
2019-05-09T13:42:34.122Z,86.07
2019-05-09T13:45:08.300Z,85.74
2019-05-09T13:47:39.425Z,85.26
2019-05-09T13:50:10.677Z,84.81
2019-05-09T13:52:41.315Z,84.55
2019-05-09T13:55:12.263Z,84.16
2019-05-09T13:57:42.924Z,84.26
2019-05-09T14:00:14.091Z,83.98
2019-05-09T14:02:45.339Z,83.96
2019-05-09T14:05:18.974Z,85.06
2019-05-09T14:07:53.457Z,84.89
2019-05-09T14:10:21.314Z,85.19
2019-05-09T14:13:05.878Z,85.72
2019-05-09T14:15:24.641Z,84.83
2019-05-09T14:17:58.106Z,85.29
2019-05-09T14:20:28.025Z,85.77
2019-05-09T14:22:59.068Z,85.11
2019-05-09T14:25:30.135Z,85.00
2019-05-09T14:28:01.189Z,84.61
2019-05-09T14:30:32.248Z,83.63
2019-05-09T14:33:03.215Z,82.75
2019-05-09T14:35:34.271Z,81.99
2019-05-09T14:38:04.939Z,82.05
2019-05-09T14:40:37.245Z,82.62
2019-05-09T14:43:09.791Z,82.34
2019-05-09T14:45:41.839Z,81.64
2019-05-09T14:48:13.200Z,82.27
2019-05-09T14:50:44.212Z,81.74
2019-05-09T14:53:15.170Z,80.00
2019-05-09T14:55:47.564Z,78.96
2019-05-09T14:58:18.418Z,79.76
2019-05-09T15:00:49.254Z,78.93
2019-05-09T15:03:20.131Z,78.99
2019-05-09T15:05:51.076Z,79.93
2019-05-09T15:08:22.029Z,79.93
2019-05-09T15:10:52.787Z,79.27
2019-05-09T15:13:23.845Z,80.65
2019-05-09T15:15:54.400Z,79.94
2019-05-09T15:18:25.351Z,79.03
2019-05-09T15:20:58.150Z,79.68
2019-05-09T15:23:29.307Z,79.68
2019-05-09T15:26:00.170Z,79.96
2019-05-09T15:28:31.129Z,79.73
2019-05-09T15:31:01.999Z,79.66
2019-05-09T15:33:33.423Z,80.18
2019-05-09T15:36:04.021Z,78.65
2019-05-09T15:38:35.186Z,78.48
2019-05-09T15:41:12.020Z,81.05
2019-05-09T15:43:38.275Z,80.24
2019-05-09T15:46:19.969Z,78.79
2019-05-09T15:48:50.998Z,79.82
2019-05-09T15:51:21.921Z,80.18
2019-05-09T15:53:53.107Z,80.42
2019-05-09T15:56:24.162Z,81.06
2019-05-09T15:58:57.836Z,80.96
2019-05-09T16:01:27.926Z,82.71
2019-05-09T16:03:58.861Z,83.33
2019-05-09T16:06:32.943Z,83.70
2019-05-09T16:09:02.435Z,84.62
2019-05-09T16:11:33.494Z,85.07
2019-05-09T16:14:04.716Z,85.90
2019-05-09T16:16:38.400Z,86.27
2019-05-09T16:19:09.102Z,86.70
2019-05-09T16:21:39.972Z,88.28
2019-05-09T16:24:10.930Z,88.12
2019-05-09T16:26:41.787Z,88.52
2019-05-09T16:29:12.862Z,88.47
2019-05-09T16:31:43.847Z,87.87
2019-05-09T16:34:14.779Z,87.83
2019-05-09T16:36:47.955Z,87.61
2019-05-09T16:39:19.049Z,87.89
2019-05-09T16:41:50.005Z,88.27
2019-05-09T16:44:21.056Z,87.94
2019-05-09T16:46:51.907Z,87.82
2019-05-09T16:49:26.043Z,88.45
2019-05-09T16:51:55.375Z,88.75
2019-05-09T16:54:29.501Z,87.11
2019-05-09T16:57:00.387Z,87.09
2019-05-09T16:59:31.420Z,88.68
2019-05-09T17:02:17.791Z,88.90
2019-05-09T17:04:34.669Z,88.63
2019-05-09T17:07:05.623Z,86.82
2019-05-09T17:09:39.449Z,85.56
2019-05-09T17:12:10.710Z,84.47
2019-05-09T17:14:41.753Z,83.82
2019-05-09T17:17:12.732Z,85.08
2019-05-09T17:19:43.587Z,84.63
2019-05-09T17:22:15.980Z,83.42
2019-05-09T17:24:49.187Z,83.65
2019-05-09T17:27:19.819Z,83.73
2019-05-09T17:29:50.793Z,84.41
2019-05-09T17:32:21.635Z,85.20
2019-05-09T17:34:52.713Z,85.89
2019-05-09T17:37:23.549Z,86.11
2019-05-09T17:39:54.407Z,85.96
2019-05-09T17:42:27.620Z,86.31
2019-05-09T17:44:57.977Z,86.68
2019-05-09T17:47:28.917Z,86.61
2019-05-09T17:49:59.897Z,86.79
2019-05-09T17:52:30.749Z,87.23
2019-05-09T17:55:01.810Z,87.27
2019-05-09T17:57:32.769Z,85.06
2019-05-09T18:00:07.988Z,86.04
2019-05-09T18:02:38.585Z,86.30
2019-05-09T18:05:09.428Z,85.36
2019-05-09T18:07:40.265Z,84.52
2019-05-09T18:10:11.604Z,85.39
2019-05-09T18:12:42.490Z,85.27
2019-05-09T18:15:13.744Z,85.32
2019-05-09T18:17:44.611Z,84.95
2019-05-09T18:20:17.713Z,84.29
2019-05-09T18:22:48.111Z,84.34
2019-05-09T18:25:19.244Z,84.08
2019-05-09T18:27:50.085Z,84.28
2019-05-09T18:30:21.448Z,84.75
2019-05-09T18:32:59.277Z,84.48
2019-05-09T18:35:31.366Z,85.04
2019-05-09T18:38:02.827Z,86.31
2019-05-09T18:40:33.888Z,86.05
2019-05-09T18:43:05.053Z,85.88
2019-05-09T18:45:37.539Z,85.78
2019-05-09T18:48:08.534Z,86.05
2019-05-09T18:50:39.564Z,86.42
2019-05-09T18:53:10.407Z,85.59
2019-05-09T18:55:41.993Z,85.78
2019-05-09T18:58:12.629Z,84.80
2019-05-09T19:00:43.599Z,86.62
2019-05-09T19:03:16.911Z,86.49
2019-05-09T19:05:47.749Z,86.50
2019-05-09T19:08:18.832Z,86.97
2019-05-09T19:10:52.247Z,87.30
2019-05-09T19:13:22.065Z,86.85
2019-05-09T19:15:58.611Z,86.38
2019-05-09T19:18:40.340Z,87.21
2019-05-09T19:21:16.048Z,87.13
2019-05-09T19:23:46.861Z,86.99
2019-05-09T19:26:36.039Z,87.36
2019-05-09T19:29:09.202Z,88.05
2019-05-09T19:31:40.514Z,87.72
2019-05-09T19:34:14.540Z,87.85
2019-05-09T19:36:45.582Z,88.38
2019-05-09T19:39:16.460Z,87.85
2019-05-09T19:41:47.312Z,88.32
2019-05-09T19:44:18.386Z,88.27
2019-05-09T19:46:49.109Z,88.25
2019-05-09T19:49:23.005Z,88.70
2019-05-09T19:51:55.079Z,87.85
2019-05-09T19:54:26.821Z,87.32
2019-05-09T19:57:00.647Z,87.68
2019-05-09T19:59:34.044Z,87.48
2019-05-09T20:02:05.628Z,86.76
2019-05-09T20:04:36.717Z,86.33
2019-05-09T20:07:08.459Z,86.48
2019-05-09T20:09:46.779Z,86.11
2019-05-09T20:12:19.265Z,86.42
2019-05-09T20:14:51.862Z,86.17
2019-05-09T20:17:22.923Z,85.83
2019-05-09T20:19:53.782Z,86.04
2019-05-09T20:22:25.425Z,86.29
2019-05-09T20:24:56.192Z,86.00
2019-05-09T20:27:27.295Z,87.55
2019-05-09T20:29:58.247Z,88.55
2019-05-09T20:32:29.293Z,88.33
2019-05-09T20:35:00.228Z,88.68
2019-05-09T20:37:31.616Z,88.85
2019-05-09T20:40:03.187Z,88.87
2019-05-09T20:42:34.908Z,88.24
2019-05-09T20:45:07.460Z,88.32
2019-05-09T20:47:38.298Z,88.92
2019-05-09T20:50:09.666Z,88.69
2019-05-09T20:52:40.962Z,89.07
2019-05-09T20:55:13.437Z,89.01
2019-05-09T20:57:44.275Z,89.33
2019-05-09T21:00:16.013Z,89.29
2019-05-09T21:02:46.928Z,89.56
2019-05-09T21:05:18.202Z,89.58
2019-05-09T21:07:49.353Z,89.97
2019-05-09T21:10:20.629Z,89.64
2019-05-09T21:12:51.985Z,89.29
2019-05-09T21:15:23.166Z,88.98
2019-05-09T21:17:54.312Z,89.28
2019-05-09T21:20:25.594Z,89.41
2019-05-09T21:22:56.580Z,89.37
2019-05-09T21:25:27.688Z,89.18
2019-05-09T21:27:58.773Z,89.10
2019-05-09T21:30:30.045Z,88.80
2019-05-09T21:33:01.109Z,88.83
2019-05-09T21:35:32.250Z,88.38
2019-05-09T21:38:02.898Z,88.96
2019-05-09T21:40:34.677Z,87.93
2019-05-09T21:43:05.532Z,88.32
2019-05-09T21:45:36.472Z,88.12
2019-05-09T21:48:07.535Z,87.80
2019-05-09T21:50:38.492Z,88.46
2019-05-09T21:53:09.467Z,88.53
2019-05-09T21:55:40.307Z,87.77
2019-05-09T21:58:11.382Z,86.45
2019-05-09T22:00:44.881Z,87.45
2019-05-09T22:03:15.553Z,87.93
2019-05-09T22:05:46.509Z,87.73
2019-05-09T22:08:17.569Z,88.12
2019-05-09T22:10:48.935Z,88.70
2019-05-09T22:13:19.983Z,89.17
2019-05-09T22:15:50.833Z,89.27
2019-05-09T22:18:21.913Z,89.14
2019-05-09T22:20:52.872Z,88.20
2019-05-09T22:23:23.731Z,88.20
2019-05-09T22:25:54.790Z,88.41
2019-05-09T22:28:25.729Z,88.66
2019-05-09T22:30:56.807Z,88.55
2019-05-09T22:33:27.767Z,88.83
2019-05-09T22:35:58.605Z,88.60
2019-05-09T22:38:29.685Z,88.32
2019-05-09T22:41:01.561Z,88.51
2019-05-09T22:43:32.499Z,88.38
2019-05-09T22:46:03.591Z,88.62
2019-05-09T22:48:34.639Z,88.75
2019-05-09T22:51:05.393Z,88.91
2019-05-09T22:53:36.351Z,88.82
2019-05-09T22:56:07.189Z,89.11
2019-05-09T22:58:38.063Z,88.59
2019-05-09T23:01:09.106Z,88.86
2019-05-09T23:03:40.088Z,88.99
2019-05-09T23:06:10.951Z,89.30
2019-05-09T23:08:41.999Z,88.92
2019-05-09T23:11:12.836Z,88.36
2019-05-09T23:13:53.011Z,88.32
2019-05-09T23:16:28.565Z,88.16
2019-05-09T23:18:59.528Z,88.19
2019-05-09T23:21:30.702Z,87.95
2019-05-09T23:24:09.209Z,87.92
2019-05-09T23:26:40.288Z,87.35
2019-05-09T23:29:11.233Z,87.81
2019-05-09T23:31:49.943Z,87.78
2019-05-09T23:34:21.023Z,88.03
2019-05-09T23:36:51.895Z,87.42
2019-05-09T23:39:24.478Z,86.76
2019-05-09T23:41:55.330Z,87.10
2019-05-09T23:44:26.202Z,87.15
2019-05-09T23:46:57.145Z,87.53
2019-05-09T23:49:28.103Z,87.70
2019-05-09T23:51:59.163Z,87.75
2019-05-09T23:54:48.422Z,87.57
2019-05-09T23:57:37.402Z,87.93
